Time;durP1;ratioP1;P1;durP2;ratioP2;P2;SDS_P1;SDS_P2;PMS_P1;PMS_P2;Temp;Humidity;BMP_temperature;BMP_pressure;BME280_temperature;BME280_humidity;BME280_pressure;Samples;Min_cycle;Max_cycle;Signal;HPM_P1;HPM_P2
2023/08/09 00:01:39;;;;;;;2.28;0.65;;;;;;;20.15;50.98;101168.69;16126979;19;129623;-66
2023/08/09 00:07:01;;;;;;;0.95;0.70;;;;;;;20.15;51.13;101177.03;16125089;19;129620;-66
2023/08/09 00:12:24;;;;;;;2.55;0.80;;;;;;;20.14;51.25;101173.41;16125038;19;130586;-66
2023/08/09 00:17:46;;;;;;;1.92;0.60;;;;;;;20.14;51.17;101175.34;16116771;19;130325;-65
2023/08/09 00:23:08;;;;;;;0.82;0.45;;;;;;;20.13;51.13;101176.44;16161327;19;129675;-65
2023/08/09 00:28:30;;;;;;;1.38;0.60;;;;;;;20.13;51.19;101170.88;16201597;19;128755;-65
2023/08/09 00:33:52;;;;;;;1.13;0.60;;;;;;;20.12;50.91;101163.63;16196461;19;129758;-65
2023/08/09 00:39:15;;;;;;;1.35;0.55;;;;;;;20.14;51.01;101172.56;16200144;19;129728;-66
2023/08/09 00:44:37;;;;;;;1.73;0.40;;;;;;;20.11;51.10;101168.38;16196400;19;129563;-66
2023/08/09 00:49:59;;;;;;;1.08;0.40;;;;;;;20.12;51.37;101177.53;16201851;19;128710;-66
2023/08/09 00:55:21;;;;;;;0.80;0.40;;;;;;;20.11;50.87;101178.63;16196645;19;129509;-66
2023/08/09 01:00:43;;;;;;;1.33;0.57;;;;;;;20.11;51.17;101189.72;16187802;19;130212;-65
2023/08/09 01:06:29;;;;;;;1.55;0.50;;;;;;;20.11;50.95;101185.03;16196569;19;129358;-65
2023/08/09 01:12:12;;;;;;;0.67;0.53;;;;;;;20.11;51.10;101195.28;16193373;19;129238;-65
2023/08/09 01:17:35;;;;;;;1.20;0.43;;;;;;;20.09;51.19;101201.09;16195899;19;130268;-65
2023/08/09 01:23:24;;;;;;;0.95;0.50;;;;;;;20.09;51.39;101197.47;16201461;19;130356;-67
2023/08/09 01:28:46;;;;;;;0.40;0.38;;;;;;;20.07;50.99;101197.72;16199284;19;132913;-66
2023/08/09 01:34:08;;;;;;;1.60;0.60;;;;;;;20.07;50.95;101199.63;16201121;19;130459;-66
2023/08/09 01:39:34;;;;;;;1.92;0.50;;;;;;;20.06;51.18;101193.25;16202925;19;130477;-67
2023/08/09 01:44:57;;;;;;;3.03;0.77;;;;;;;20.05;50.98;101194.34;16201147;19;129110;-66
2023/08/09 01:50:22;;;;;;;1.73;0.57;;;;;;;20.06;51.43;101206.31;16198196;19;129880;-66
2023/08/09 01:55:45;;;;;;;1.67;0.55;;;;;;;20.05;51.21;101230.44;16190348;19;129295;-65
2023/08/09 02:01:08;;;;;;;1.92;0.40;;;;;;;20.05;51.00;101230.44;16188641;19;129684;-66
2023/08/09 02:06:34;;;;;;;1.45;0.50;;;;;;;20.06;51.43;101228.53;16198561;19;129796;-66
2023/08/09 02:11:56;;;;;;;2.17;0.45;;;;;;;20.04;51.10;101222.38;16172674;19;129304;-65
2023/08/09 02:17:18;;;;;;;0.65;0.40;;;;;;;20.04;51.38;101219.59;16128943;19;129099;-66
2023/08/09 02:22:41;;;;;;;1.23;0.50;;;;;;;20.04;50.94;101237.09;16128874;19;132470;-66
2023/08/09 02:28:04;;;;;;;1.02;0.50;;;;;;;20.04;51.43;101236.25;16125048;19;129592;-66
2023/08/09 02:33:26;;;;;;;1.17;0.50;;;;;;;20.04;51.28;101244.59;16117046;19;130353;-66
2023/08/09 02:38:48;;;;;;;1.48;0.52;;;;;;;20.02;50.98;101255.09;16118544;19;130382;-67
2023/08/09 02:44:11;;;;;;;0.70;0.43;;;;;;;20.01;51.41;101250.63;16116071;19;130491;-66
2023/08/09 02:49:33;;;;;;;0.50;0.40;;;;;;;20.01;51.11;101250.63;16113330;19;130763;-68
2023/08/09 02:54:55;;;;;;;0.63;0.50;;;;;;;20.01;51.19;101261.75;16115646;19;129900;-66
2023/08/09 03:00:17;;;;;;;0.52;0.32;;;;;;;20.01;51.02;101267.31;16102556;19;131039;-65
2023/08/09 03:05:39;;;;;;;1.00;0.50;;;;;;;19.99;51.23;101268.38;16114738;19;130634;-66
2023/08/09 03:11:01;;;;;;;1.98;0.40;;;;;;;20.00;51.18;101274.78;16130813;19;129128;-66
2023/08/09 03:16:23;;;;;;;0.50;0.50;;;;;;;19.99;50.98;101282.28;16125988;19;130075;-65
2023/08/09 03:21:45;;;;;;;1.13;0.60;;;;;;;19.99;51.39;101276.72;16124135;19;134583;-66
2023/08/09 03:27:08;;;;;;;1.08;0.50;;;;;;;19.99;50.92;101273.94;16126676;19;130837;-67
2023/08/09 03:32:30;;;;;;;1.23;0.50;;;;;;;19.98;51.33;101286.09;16123322;19;130434;-67
2023/08/09 03:37:52;;;;;;;0.95;0.43;;;;;;;19.98;50.94;101279.72;16123841;19;129693;-66
2023/08/09 03:43:14;;;;;;;0.68;0.43;;;;;;;19.97;51.40;101295.53;16125868;19;130201;-66
2023/08/09 03:48:37;;;;;;;0.65;0.32;;;;;;;19.98;51.23;101313.88;16119766;19;131192;-70
2023/08/09 03:54:00;;;;;;;0.68;0.40;;;;;;;19.97;51.13;101334.41;16123749;19;130701;-66
2023/08/09 03:59:23;;;;;;;2.55;0.50;;;;;;;19.96;51.40;101337.44;16123733;19;130580;-66
2023/08/09 04:04:45;;;;;;;0.75;0.35;;;;;;;19.97;51.35;101339.13;16124359;19;129768;-66
2023/08/09 04:10:08;;;;;;;0.43;0.43;;;;;;;19.96;51.19;101343.81;16122513;19;129300;-66
2023/08/09 04:15:29;;;;;;;0.82;0.50;;;;;;;19.95;50.92;101353.25;16122563;19;130999;-66
2023/08/09 04:20:51;;;;;;;0.60;0.47;;;;;;;19.96;51.34;101354.94;16122762;19;130405;-66
2023/08/09 04:26:13;;;;;;;0.90;0.65;;;;;;;19.95;51.33;101369.06;16122976;19;130120;-66
2023/08/09 04:31:36;;;;;;;0.93;0.70;;;;;;;19.94;51.36;101365.44;16124351;19;130420;-65
2023/08/09 04:36:59;;;;;;;0.70;0.63;;;;;;;19.95;51.37;101363.53;16125814;19;131787;-66
2023/08/09 04:42:21;;;;;;;1.80;1.00;;;;;;;19.94;51.42;101368.22;16125734;19;129266;-66
2023/08/09 04:47:43;;;;;;;1.17;1.00;;;;;;;19.93;50.88;101366.56;16120909;19;130199;-66
2023/08/09 04:53:05;;;;;;;1.33;1.00;;;;;;;19.92;51.10;101370.41;16127169;19;131108;-66
2023/08/09 04:58:27;;;;;;;1.50;1.25;;;;;;;19.93;51.44;101376.81;16120039;19;130223;-66
2023/08/09 05:03:49;;;;;;;1.65;1.40;;;;;;;19.92;50.91;101381.53;16114641;19;130765;-65
2023/08/09 05:09:11;;;;;;;1.70;1.40;;;;;;;19.92;51.08;101387.06;16122777;19;130196;-66
2023/08/09 05:14:33;;;;;;;1.40;1.30;;;;;;;19.91;51.33;101390.94;16118419;19;129753;-66
2023/08/09 05:19:55;;;;;;;1.65;1.20;;;;;;;19.93;51.25;101399.88;16119526;19;129599;-66
2023/08/09 05:25:18;;;;;;;2.45;0.90;;;;;;;19.95;50.92;101408.78;16119887;19;129657;-65
2023/08/09 05:30:40;;;;;;;1.20;1.10;;;;;;;19.96;50.93;101415.19;16119626;19;129512;-67
2023/08/09 05:36:02;;;;;;;1.48;1.20;;;;;;;19.97;50.99;101401.06;16115973;19;129691;-65
2023/08/09 05:41:24;;;;;;;2.65;0.90;;;;;;;19.99;51.20;101409.16;16112067;19;130632;-65
2023/08/09 05:46:46;;;;;;;1.90;1.00;;;;;;;20.01;51.19;101428.38;16116422;19;130751;-66
2023/08/09 05:52:08;;;;;;;3.22;1.25;;;;;;;20.02;50.78;101425.34;16114876;19;130413;-66
2023/08/09 05:57:30;;;;;;;1.60;1.00;;;;;;;20.06;50.93;101437.66;16116646;19;130365;-66
2023/08/09 06:02:52;;;;;;;0.80;0.80;;;;;;;20.09;51.08;101444.66;16112648;19;131500;-66
2023/08/09 06:08:15;;;;;;;1.00;0.77;;;;;;;20.18;50.92;101446.00;16113326;19;130171;-66
2023/08/09 06:13:37;;;;;;;2.53;0.90;;;;;;;20.28;51.00;101450.91;16114640;19;131262;-65
2023/08/09 06:18:59;;;;;;;0.98;0.80;;;;;;;20.39;50.89;101449.19;16109686;19;130004;-65
2023/08/09 06:24:22;;;;;;;0.90;0.70;;;;;;;20.49;50.88;101459.69;16110552;19;130716;-65
2023/08/09 06:29:45;;;;;;;1.67;0.90;;;;;;;20.55;50.56;101447.59;16110109;19;129808;-65
2023/08/09 06:35:09;;;;;;;1.08;0.80;;;;;;;20.64;50.87;101464.72;16107063;19;129628;-65
2023/08/09 06:40:31;;;;;;;1.02;0.75;;;;;;;20.66;50.78;101460.59;16117368;19;130570;-66
2023/08/09 06:45:56;;;;;;;1.33;0.90;;;;;;;20.71;50.90;101457.06;16125919;19;129481;-65
2023/08/09 06:51:19;;;;;;;0.85;0.80;;;;;;;20.74;50.43;101467.69;16123623;19;130768;-66
2023/08/09 06:56:41;;;;;;;1.15;1.00;;;;;;;20.80;50.55;101469.50;16131272;19;134334;-67
2023/08/09 07:02:03;;;;;;;2.00;0.80;;;;;;;20.84;50.53;101476.28;16128883;19;129883;-67
2023/08/09 07:07:26;;;;;;;1.67;0.90;;;;;;;20.87;50.41;101486.91;16128718;19;133983;-65
2023/08/09 07:12:48;;;;;;;3.28;1.08;;;;;;;20.93;50.21;101493.41;16128173;19;129838;-66
2023/08/09 07:18:10;;;;;;;1.67;0.90;;;;;;;20.99;50.43;101505.47;16122987;19;130563;-65
2023/08/09 07:23:32;;;;;;;1.30;1.08;;;;;;;21.00;49.94;101516.34;16124570;19;130644;-65
2023/08/09 07:29:14;;;;;;;1.83;1.02;;;;;;;21.02;49.98;101516.13;16122362;19;130428;-65
2023/08/09 07:34:36;;;;;;;1.33;1.10;;;;;;;21.08;50.03;101526.22;16121840;19;131489;-66
2023/08/09 07:39:58;;;;;;;1.10;0.88;;;;;;;21.11;50.00;101525.75;16122363;19;130775;-65
2023/08/09 07:45:20;;;;;;;1.55;1.33;;;;;;;21.10;49.93;101532.41;16122226;19;131962;-64
2023/08/09 07:50:44;;;;;;;2.17;1.30;;;;;;;21.13;49.87;101540.25;16119143;19;129660;-63
2023/08/09 07:56:06;;;;;;;1.80;1.42;;;;;;;21.14;50.03;101539.16;16116758;19;130919;-63
2023/08/09 08:01:28;;;;;;;5.75;1.45;;;;;;;21.18;50.22;101537.56;16117301;19;130918;-62
2023/08/09 08:06:50;;;;;;;3.78;1.77;;;;;;;21.22;50.05;101540.72;16121335;19;129686;-62
2023/08/09 08:12:14;;;;;;;2.53;1.70;;;;;;;21.26;50.31;101543.81;16119784;19;129818;-62
2023/08/09 08:17:56;;;;;;;2.25;1.58;;;;;;;21.28;50.15;101559.19;16120845;19;129423;-62
2023/08/09 08:23:19;;;;;;;5.15;1.80;;;;;;;21.30;50.20;101551.44;16117717;19;131249;-63
2023/08/09 08:28:41;;;;;;;2.25;1.65;;;;;;;21.33;49.70;101561.19;16120507;19;131077;-62
2023/08/09 08:34:03;;;;;;;2.08;1.70;;;;;;;21.31;49.68;101557.81;16117160;19;130571;-62
2023/08/09 08:39:25;;;;;;;3.95;1.60;;;;;;;21.33;50.03;101569.56;16117906;19;129827;-62
2023/08/09 08:44:47;;;;;;;3.97;1.95;;;;;;;21.35;49.93;101567.38;16117312;19;130106;-65
2023/08/09 08:50:11;;;;;;;2.20;1.75;;;;;;;21.40;49.89;101575.84;16119097;19;131003;-66
2023/08/09 08:55:34;;;;;;;3.55;1.70;;;;;;;21.44;50.05;101585.34;16118629;19;129528;-67
2023/08/09 09:00:55;;;;;;;4.57;1.88;;;;;;;21.47;49.85;101584.03;16121286;19;130500;-68
2023/08/09 09:06:17;;;;;;;2.55;1.80;;;;;;;21.45;50.28;101591.78;16120426;19;131354;-67
2023/08/09 09:11:40;;;;;;;4.88;1.63;;;;;;;21.43;50.34;101594.78;16117352;19;129534;-68
2023/08/09 09:17:02;;;;;;;2.35;1.83;;;;;;;21.40;50.39;101592.53;16120375;19;128941;-67
2023/08/09 09:22:29;;;;;;;4.05;1.70;;;;;;;21.38;50.11;101600.28;16121865;19;130552;-67
2023/08/09 09:27:58;;;;;;;1.67;1.48;;;;;;;21.39;50.02;101607.53;16116919;19;129627;-68
2023/08/09 09:33:32;;;;;;;4.10;2.03;;;;;;;21.39;49.99;101599.19;16120492;19;129591;-67
2023/08/09 09:38:54;;;;;;;2.53;1.60;;;;;;;21.36;50.21;101594.94;16118107;19;129523;-67
2023/08/09 09:44:23;;;;;;;3.08;1.52;;;;;;;21.33;50.62;101597.38;16111603;19;130394;-67
2023/08/09 09:49:52;;;;;;;1.70;1.52;;;;;;;21.31;50.44;101592.09;16118860;19;130624;-66
2023/08/09 09:55:16;;;;;;;2.40;1.35;;;;;;;21.32;50.62;101588.22;16113347;19;129503;-68
2023/08/09 10:00:46;;;;;;;2.97;1.30;;;;;;;21.30;50.77;101586.75;16116632;19;129315;-67
2023/08/09 10:06:21;;;;;;;2.17;1.40;;;;;;;21.26;50.62;101599.50;16116282;19;129301;-67
2023/08/09 10:11:48;;;;;;;1.38;1.20;;;;;;;21.22;50.76;101601.94;16117443;19;129414;-67
2023/08/09 10:17:10;;;;;;;3.92;1.60;;;;;;;21.20;51.06;101598.53;16112478;19;129737;-67
2023/08/09 10:22:38;;;;;;;1.40;1.30;;;;;;;21.20;50.92;101601.31;16116475;19;129555;-67
2023/08/09 10:28:03;;;;;;;1.73;1.40;;;;;;;21.20;50.85;101613.28;16115672;19;130058;-66
2023/08/09 10:33:27;;;;;;;3.80;1.50;;;;;;;21.19;50.84;101605.19;16117207;19;135500;-65
2023/08/09 10:38:49;;;;;;;1.55;1.45;;;;;;;21.18;50.69;101609.06;16113067;19;129323;-66
2023/08/09 10:44:11;;;;;;;2.75;1.48;;;;;;;21.16;50.84;101625.16;16187389;19;129263;-64
2023/08/09 10:49:43;;;;;;;4.15;1.25;;;;;;;21.16;50.44;101628.81;16135948;19;129854;-65
2023/08/09 10:55:21;;;;;;;3.67;1.13;;;;;;;21.19;50.41;101628.28;16120116;19;129444;-66
2023/08/09 11:00:43;;;;;;;1.70;1.30;;;;;;;21.19;50.28;101627.47;16114533;19;129595;-65
2023/08/09 11:06:05;;;;;;;1.50;1.20;;;;;;;21.20;50.50;101634.72;16124029;19;129449;-65
2023/08/09 11:11:27;;;;;;;1.52;1.20;;;;;;;21.19;50.55;101628.28;16124477;19;129688;-65
2023/08/09 11:16:50;;;;;;;2.03;1.20;;;;;;;21.21;50.38;101626.09;16107236;19;130610;-66
2023/08/09 11:22:13;;;;;;;1.10;1.00;;;;;;;21.21;50.74;101636.41;16108316;19;129001;-66
2023/08/09 11:27:39;;;;;;;1.20;0.90;;;;;;;21.22;50.60;101643.66;16119222;19;130969;-66
2023/08/09 11:33:04;;;;;;;1.10;1.00;;;;;;;21.22;50.48;101647.28;16130585;19;131136;-63
2023/08/09 11:38:26;;;;;;;1.87;1.23;;;;;;;21.24;51.03;101651.75;16129069;19;130566;-65
2023/08/09 11:43:48;;;;;;;1.38;1.00;;;;;;;21.25;50.56;101653.44;16127095;19;131134;-64
2023/08/09 11:49:10;;;;;;;1.58;1.05;;;;;;;21.24;50.81;101662.88;16119215;19;130674;-63
2023/08/09 11:54:32;;;;;;;2.63;1.00;;;;;;;21.25;50.49;101650.66;16118229;19;130675;-65
2023/08/09 11:59:54;;;;;;;1.70;1.00;;;;;;;21.24;50.77;101649.81;16130583;19;129533;-65
2023/08/09 12:05:36;;;;;;;2.28;1.00;;;;;;;21.27;50.49;101654.88;16125275;19;130045;-66
2023/08/09 12:11:01;;;;;;;4.85;1.23;;;;;;;21.31;50.70;101647.75;16131320;19;135299;-63
2023/08/09 12:16:24;;;;;;;3.15;1.10;;;;;;;21.35;50.72;101653.66;16127253;19;131456;-60
2023/08/09 12:21:46;;;;;;;1.73;1.05;;;;;;;21.37;50.69;101657.03;16129847;19;131193;-62
2023/08/09 12:27:08;;;;;;;2.92;1.00;;;;;;;21.39;50.70;101671.56;16130987;19;129049;-63
2023/08/09 12:32:30;;;;;;;1.48;1.15;;;;;;;21.40;51.00;101681.59;16129639;19;130036;-67
2023/08/09 12:37:52;;;;;;;3.85;1.10;;;;;;;21.39;50.90;101688.25;16126914;19;130536;-70
2023/08/09 12:43:14;;;;;;;3.08;1.15;;;;;;;21.39;50.89;101693.81;16130570;19;131107;-66
2023/08/09 12:48:36;;;;;;;2.08;1.00;;;;;;;21.41;49.99;101694.44;16131935;19;131410;-61
2023/08/09 12:53:58;;;;;;;3.50;1.00;;;;;;;21.45;50.14;101701.19;16127589;19;129860;-63
2023/08/09 12:59:20;;;;;;;2.70;1.10;;;;;;;21.45;49.89;101703.13;16122117;19;130086;-63
2023/08/09 13:04:42;;;;;;;4.45;1.00;;;;;;;21.47;49.47;101717.66;16125064;19;130070;-66
2023/08/09 13:10:05;;;;;;;2.53;0.90;;;;;;;21.45;49.45;101720.66;16126713;19;130808;-64
2023/08/09 13:15:27;;;;;;;1.42;0.80;;;;;;;21.44;49.67;101718.97;16117733;19;131127;-65
2023/08/09 13:20:49;;;;;;;3.65;0.90;;;;;;;21.45;49.24;101730.97;16112833;19;129675;-60
2023/08/09 13:26:14;;;;;;;3.72;1.02;;;;;;;21.45;49.03;101737.38;16116376;19;129943;-62
2023/08/09 13:31:36;;;;;;;2.90;1.20;;;;;;;21.47;48.81;101743.53;16119925;19;130765;-65
2023/08/09 13:36:59;;;;;;;2.33;1.00;;;;;;;21.50;48.76;101737.53;16120908;19;131104;-63
2023/08/09 13:42:21;;;;;;;1.42;0.80;;;;;;;21.52;48.65;101742.81;16118200;19;133305;-65
2023/08/09 13:47:43;;;;;;;1.77;0.88;;;;;;;21.52;48.50;101738.13;16116564;19;131355;-64
2023/08/09 13:53:05;;;;;;;1.40;0.88;;;;;;;21.54;48.06;101737.03;16118369;19;129776;-63
2023/08/09 13:58:27;;;;;;;2.22;0.93;;;;;;;21.52;48.19;101737.25;16115954;19;130230;-68
2023/08/09 14:03:49;;;;;;;1.52;0.75;;;;;;;21.55;47.84;101749.84;16120164;19;130295;-69
2023/08/09 14:09:13;;;;;;;2.97;0.82;;;;;;;21.56;47.72;101748.75;16119293;19;129469;-62
2023/08/09 14:14:37;;;;;;;2.35;0.88;;;;;;;21.58;47.82;101752.13;16106443;19;131147;-63
2023/08/09 14:20:00;;;;;;;3.92;0.70;;;;;;;21.60;47.62;101772.22;16109528;19;131042;-63
2023/08/09 14:25:23;;;;;;;3.65;0.85;;;;;;;21.60;47.20;101770.28;16111587;19;130541;-67
2023/08/09 14:30:45;;;;;;;4.35;1.00;;;;;;;21.60;46.99;101764.72;16112733;19;130943;-75
2023/08/09 14:36:07;;;;;;;2.25;0.70;;;;;;;21.60;47.34;101777.78;16117149;19;129593;-62
2023/08/09 14:41:30;;;;;;;4.05;0.93;;;;;;;21.60;46.92;101773.06;16114138;19;130273;-69
2023/08/09 14:46:52;;;;;;;3.30;1.08;;;;;;;21.59;46.88;101781.66;16113549;19;131185;-69
2023/08/09 14:52:14;;;;;;;10.55;1.77;;;;;;;21.56;46.70;101776.59;16113492;19;129525;-70
2023/08/09 14:57:36;;;;;;;5.95;1.40;;;;;;;21.55;46.98;101777.69;16122858;19;129590;-68
2023/08/09 15:03:02;;;;;;;4.05;1.20;;;;;;;21.54;46.79;101778.78;16148623;19;129951;-67
2023/08/09 15:08:24;;;;;;;;;;;;;;;21.44;46.70;101780.22;16129379;19;131929;-68
2023/08/09 15:13:46;;;;;;;8.95;1.50;;;;;;;21.42;47.02;101792.69;16123559;19;130926;-68
2023/08/09 15:19:08;;;;;;;7.60;1.60;;;;;;;21.43;47.34;101784.09;16118638;19;129551;-67
2023/08/09 15:24:30;;;;;;;6.72;1.63;;;;;;;21.46;47.96;101788.34;16126950;19;130281;-67
2023/08/09 15:29:52;;;;;;;10.20;1.80;;;;;;;21.49;47.93;101794.28;16126598;19;129546;-67
2023/08/09 15:35:14;;;;;;;4.75;1.30;;;;;;;21.50;47.89;101798.75;16124661;19;130798;-67
2023/08/09 15:40:36;;;;;;;5.03;1.52;;;;;;;21.51;47.89;101797.69;16124830;19;129727;-71
2023/08/09 15:45:58;;;;;;;2.50;1.10;;;;;;;21.50;47.45;101798.75;16119865;19;131669;-68
2023/08/09 15:51:21;;;;;;;4.15;1.17;;;;;;;21.50;48.00;101789.56;16120756;19;133492;-69
2023/08/09 15:56:42;;;;;;;4.63;1.30;;;;;;;21.50;47.93;101812.69;16125581;19;130112;-70
2023/08/09 16:02:05;;;;;;;2.83;0.93;;;;;;;21.51;48.00;101813.53;16118707;19;131225;-71
2023/08/09 16:07:27;;;;;;;5.45;1.08;;;;;;;21.50;48.22;101807.13;16122675;19;130942;-71
2023/08/09 16:12:49;;;;;;;4.10;1.00;;;;;;;21.51;47.66;101803.25;16120926;19;129959;-69
2023/08/09 16:18:11;;;;;;;4.20;1.00;;;;;;;21.49;47.86;101805.41;16124795;19;129862;-71
2023/08/09 16:23:33;;;;;;;5.22;0.90;;;;;;;21.50;47.76;101795.13;16123312;19;129769;-70
2023/08/09 16:28:56;;;;;;;6.00;0.95;;;;;;;21.51;48.17;101799.59;16122324;19;130265;-71
2023/08/09 16:34:18;;;;;;;3.75;1.10;;;;;;;21.50;48.15;101807.13;16122398;19;129552;-70
2023/08/09 16:39:40;;;;;;;5.20;1.10;;;;;;;21.50;48.22;101825.75;16117753;19;129555;-70
2023/08/09 16:45:03;;;;;;;7.00;1.10;;;;;;;21.48;47.64;101825.09;16118362;19;130448;-69
2023/08/09 16:50:25;;;;;;;3.90;1.10;;;;;;;21.45;47.77;101828.41;16115995;19;130447;-71
2023/08/09 16:55:47;;;;;;;4.32;1.23;;;;;;;21.43;47.42;101841.72;16124792;19;130314;-72
2023/08/09 17:01:12;;;;;;;3.67;0.93;;;;;;;21.41;47.68;101841.97;16122762;19;131038;-71
2023/08/09 17:06:34;;;;;;;1.55;0.77;;;;;;;21.41;47.86;101847.53;16119645;19;129715;-71
2023/08/09 17:11:56;;;;;;;3.60;1.05;;;;;;;21.42;47.70;101853.94;16119481;19;131045;-71
2023/08/09 17:17:18;;;;;;;5.85;1.20;;;;;;;21.40;47.37;101845.84;16121442;19;130676;-72
2023/08/09 17:22:41;;;;;;;1.90;0.80;;;;;;;21.40;47.56;101845.84;16117198;19;129535;-72
2023/08/09 17:28:03;;;;;;;1.85;0.63;;;;;;;21.40;47.68;101847.75;16120343;19;131187;-72
2023/08/09 17:33:25;;;;;;;2.47;1.00;;;;;;;21.40;47.52;101856.97;16121090;19;130063;-71
2023/08/09 17:38:49;;;;;;;2.67;1.10;;;;;;;21.37;47.31;101860.22;16118488;19;129255;-71
2023/08/09 17:44:11;;;;;;;3.45;1.00;;;;;;;21.36;47.47;101861.31;16120328;19;129973;-71
2023/08/09 17:49:33;;;;;;;3.05;1.10;;;;;;;21.35;47.08;101870.75;16101978;19;129570;-75
2023/08/09 17:54:55;;;;;;;1.27;0.70;;;;;;;21.32;47.63;101868.44;16113147;19;129567;-69
2023/08/09 18:00:20;;;;;;;1.83;0.90;;;;;;;21.28;47.37;101882.00;16121271;19;129504;-69
2023/08/09 18:05:43;;;;;;;4.05;1.00;;;;;;;21.29;47.05;101888.44;16129305;19;130624;-72
2023/08/09 18:11:05;;;;;;;2.13;0.95;;;;;;;21.28;46.76;101895.91;16124810;19;130330;-70
2023/08/09 18:16:27;;;;;;;4.43;1.08;;;;;;;21.28;47.05;101893.13;16121796;19;130180;-69
2023/08/09 18:21:49;;;;;;;3.47;0.88;;;;;;;21.28;47.11;101909.00;16122586;19;130033;-67
2023/08/09 18:27:11;;;;;;;3.80;0.90;;;;;;;21.30;46.81;101912.38;16122735;19;130860;-71
2023/08/09 18:32:33;;;;;;;4.40;0.90;;;;;;;21.29;46.89;101917.09;16117680;19;130155;-64
2023/08/09 18:37:55;;;;;;;3.80;0.70;;;;;;;21.31;46.58;101914.06;16131761;19;130915;-57
2023/08/09 18:43:17;;;;;;;2.45;0.70;;;;;;;21.33;46.85;101917.47;16131203;19;129696;-60
2023/08/09 18:48:39;;;;;;;3.55;0.88;;;;;;;21.36;47.34;101911.41;16129344;19;129779;-69
2023/08/09 18:54:01;;;;;;;3.38;0.93;;;;;;;21.34;47.06;101919.16;16135471;19;133264;-65
2023/08/09 18:59:23;;;;;;;1.95;0.70;;;;;;;21.33;47.21;101921.09;16129140;19;130223;-68
2023/08/09 19:04:45;;;;;;;2.45;1.00;;;;;;;21.32;47.20;101924.13;16136993;19;129628;-61
2023/08/09 19:10:09;;;;;;;3.03;1.00;;;;;;;21.31;46.76;101925.19;16129345;19;130406;-69
2023/08/09 19:15:32;;;;;;;2.33;0.70;;;;;;;21.29;47.34;101924.63;16129091;19;130539;-74
2023/08/09 19:20:59;;;;;;;3.65;1.08;;;;;;;21.29;47.12;101927.41;16128315;19;129649;-69
2023/08/09 19:26:21;;;;;;;1.63;1.02;;;;;;;21.27;47.27;101935.13;16127297;19;132840;-68
2023/08/09 19:31:44;;;;;;;2.65;0.82;;;;;;;21.28;46.92;101956.31;16118550;19;131756;-74
2023/08/09 19:37:06;;;;;;;2.28;0.88;;;;;;;21.29;47.52;101960.78;16130609;19;130466;-77
2023/08/09 19:42:28;;;;;;;1.42;0.80;;;;;;;21.26;46.96;101952.91;16152547;19;129212;-78
2023/08/09 19:47:53;;;;;;;0.85;0.60;;;;;;;21.21;47.24;101965.59;16125199;19;130072;-76
2023/08/09 19:53:19;;;;;;;;;;;;;;;21.17;47.10;101964.38;16128267;19;130899;-74
2023/08/09 19:58:41;;;;;;;0.87;0.80;;;;;;;21.18;47.52;101974.44;16112603;19;130841;-65
2023/08/09 20:04:04;;;;;;;1.83;0.60;;;;;;;21.17;47.57;101972.72;16116680;19;130245;-72
2023/08/09 20:09:26;;;;;;;0.98;0.60;;;;;;;21.16;47.31;101976.63;16119804;19;131086;-70
2023/08/09 20:14:51;;;;;;;3.65;0.90;;;;;;;21.16;47.46;101973.84;16118891;19;130602;-63
2023/08/09 20:20:13;;;;;;;0.93;0.47;;;;;;;21.16;47.80;101979.41;16119900;19;131057;-64
2023/08/09 20:25:35;;;;;;;3.42;1.02;;;;;;;21.15;47.49;101977.72;16121698;19;130769;-67
2023/08/09 20:31:01;;;;;;;2.67;0.80;;;;;;;21.15;47.77;101977.72;16113838;19;130520;-68
2023/08/09 20:36:23;;;;;;;6.45;0.70;;;;;;;21.13;47.66;101976.22;16122248;19;129738;-67
2023/08/09 20:41:45;;;;;;;3.53;1.10;;;;;;;21.10;47.91;101977.56;16123377;19;129396;-67
2023/08/09 20:47:07;;;;;;;2.17;0.70;;;;;;;21.10;48.13;101985.06;16120310;19;130555;-66
2023/08/09 20:52:29;;;;;;;0.88;0.73;;;;;;;21.08;48.00;101981.66;16138793;19;131395;-64
2023/08/09 20:57:51;;;;;;;1.17;0.47;;;;;;;21.05;48.11;101988.53;16203771;19;128746;-64
2023/08/09 21:03:13;;;;;;;2.58;0.77;;;;;;;21.02;48.11;101989.88;16194940;19;128939;-63
2023/08/09 21:08:35;;;;;;;1.25;0.70;;;;;;;21.02;48.23;101994.59;16195013;19;128957;-65
2023/08/09 21:13:58;;;;;;;3.53;0.90;;;;;;;21.01;48.46;101992.91;16195965;19;128835;-64
2023/08/09 21:19:20;;;;;;;1.52;0.70;;;;;;;20.98;48.30;101983.09;16184774;19;128848;-65
2023/08/09 21:24:42;;;;;;;2.40;0.95;;;;;;;20.97;48.14;101991.66;16192219;19;130157;-63
2023/08/09 21:30:05;;;;;;;1.33;0.77;;;;;;;20.96;48.30;101993.63;16196884;19;130450;-64
2023/08/09 21:35:27;;;;;;;0.88;0.60;;;;;;;20.95;48.07;101993.84;16196983;19;129469;-64
2023/08/09 21:40:59;;;;;;;1.48;0.70;;;;;;;20.94;48.29;101993.00;16195540;19;130419;-64
2023/08/09 21:46:21;;;;;;;2.42;0.98;;;;;;;20.90;48.27;101998.19;16192726;19;132641;-63
2023/08/09 21:51:43;;;;;;;3.35;0.90;;;;;;;20.91;48.41;101999.03;16193339;19;129271;-65
2023/08/09 21:57:04;;;;;;;2.38;0.70;;;;;;;20.89;48.39;102001.19;16196162;19;128374;-64
2023/08/09 22:02:26;;;;;;;1.95;0.80;;;;;;;20.88;48.12;102008.69;16195819;19;129733;-63
2023/08/09 22:07:49;;;;;;;1.75;0.70;;;;;;;20.86;48.33;101996.94;16172082;19;129516;-64
2023/08/09 22:13:13;;;;;;;1.00;0.50;;;;;;;20.87;48.57;102007.00;16118770;19;129330;-64
2023/08/09 22:18:34;;;;;;;1.42;0.70;;;;;;;20.85;48.20;101999.97;16117622;19;130261;-65
2023/08/09 22:23:57;;;;;;;2.95;0.80;;;;;;;20.84;48.31;101996.34;16111163;19;130822;-63
2023/08/09 22:29:19;;;;;;;1.85;0.60;;;;;;;20.84;48.39;101999.13;16112614;19;130449;-64
2023/08/09 22:34:40;;;;;;;3.17;0.70;;;;;;;20.83;48.44;101997.41;16104623;19;129870;-64
2023/08/09 22:40:06;;;;;;;1.52;0.65;;;;;;;20.81;48.35;102007.91;16102478;19;131229;-63
2023/08/09 22:45:30;;;;;;;1.27;0.50;;;;;;;20.81;48.77;102001.53;16104231;19;129592;-64
2023/08/09 22:50:52;;;;;;;1.33;0.60;;;;;;;20.79;48.62;102010.13;16106566;19;130407;-64
2023/08/09 22:56:14;;;;;;;3.58;0.70;;;;;;;20.79;48.57;102014.81;16108831;19;128875;-64
2023/08/09 23:01:41;;;;;;;2.05;0.60;;;;;;;20.77;48.54;102023.41;16106352;19;130868;-63
2023/08/09 23:07:03;;;;;;;3.70;0.63;;;;;;;20.76;48.62;102021.69;16108031;19;130291;-64
2023/08/09 23:12:26;;;;;;;1.05;0.60;;;;;;;20.74;48.65;102016.31;16107512;19;129920;-64
2023/08/09 23:17:48;;;;;;;0.95;0.50;;;;;;;20.74;48.68;102018.25;16106698;19;131393;-64
2023/08/09 23:23:11;;;;;;;1.25;0.60;;;;;;;20.74;48.63;102026.63;16117635;19;130654;-63
2023/08/09 23:28:33;;;;;;;1.00;0.50;;;;;;;20.73;48.54;102024.91;16122796;19;129459;-64
2023/08/09 23:33:55;;;;;;;1.90;0.60;;;;;;;20.71;48.86;102029.84;16119631;19;130042;-64
2023/08/09 23:39:18;;;;;;;2.20;0.60;;;;;;;20.70;48.74;102034.56;16128143;19;129853;-64
2023/08/09 23:44:39;;;;;;;1.67;0.63;;;;;;;20.69;48.71;102032.00;16126510;19;130956;-64
2023/08/09 23:50:01;;;;;;;1.17;0.47;;;;;;;20.68;48.71;102044.22;16130329;19;132101;-64
2023/08/09 23:55:23;;;;;;;0.77;0.50;;;;;;;20.67;48.53;102031.41;16128546;19;129631;-65
